Řízení letového provozu České republiky  
Aktualizace dat:  10.08.2020 05:59:29 UTC English version
   METEO Zobrazení stránky:  10.08.2020 06:00:51 UTC  
vysvětlivky
METAR EDDB 100550Z 16006KT 9999 FEW020CB 22/16 Q1018 NOSIG=
METAR EDDC 100550Z 34005KT 300V020 9999 -SHRA VCTS BKN064CB 21/17 Q1017 TEMPO TSRA=
METAR COR EDDE 100550Z 31003KT 210V360 CAVOK 22/15 Q1018 TEMPO TSRA=
METAR EDDF 100550Z 03011KT CAVOK 24/16 Q1015 NOSIG=
METAR EDDM 100550Z 09003KT CAVOK 17/16 Q1017 NOSIG=
METAR EDDN 100550Z VRB02KT CAVOK 20/14 Q1016 NOSIG=
METAR EDDP 100550Z 08009KT 9999 FEW060CB 23/16 Q1016 TEMPO SHRA=
METAR EDDT 100550Z 10004KT 060V140 9999 FEW032TCU 24/16 Q1017 NOSIG=
METAR EDQM 100550Z 35007KT CAVOK 18/15 Q1019=
METAR EPBY 100530Z 07004KT 040V100 CAVOK 21/18 Q1019=
METAR EPGD 100530Z 00000KT CAVOK 20/18 Q1020=
METAR EPKK 100530Z 05007KT CAVOK 18/17 Q1018=
METAR EPKT 100530Z 09006KT CAVOK 19/17 Q1018=
METAR EPLL 100530Z VRB01KT CAVOK 22/18 Q1018=
METAR EPPO 100530Z 05004KT CAVOK 22/17 Q1018=
METAR EPRZ 100530Z VRB02KT 0350 R27/0550N FG VV001 17/17 Q1018=
METAR EPWA 100530Z 05005KT CAVOK 23/17 Q1018 NOSIG=
METAR EPWR 100530Z VRB01KT CAVOK 20/18 Q1017=
METAR LHBP 100530Z VRB02KT CAVOK 23/19 Q1016 NOSIG=
METAR LHSM 100515Z AUTO VRB02KT 5000 BR NCD 19/19 Q1016 BECMG CAVOK=
METAR LKBC 100600Z AUTO 00000KT CAVOK 19/16 Q1018=
METAR LKCV 100530Z 00000KT CAVOK 20/17 Q1017 NOSIG RMK BLU BLU=
METAR LKKB 100530Z 00000KT CAVOK 21/18 Q1017 NOSIG RMK BLU BLU=
METAR LKKU 100530Z 04002KT CAVOK 20/18 Q1016=
METAR LKKV 100500Z 10002KT CAVOK 16/14 Q1019 RMK REG QNH 1014=
METAR LKLN 100600Z AUTO VRB01KT CAVOK 19/16 Q1018=
METAR LKMT 100530Z 05002KT 7000 NSC 19/17 Q1018 NOSIG RMK REG QNH 1014=
METAR LKNA 100530Z 34005KT CAVOK 20/16 Q1018 NOSIG RMK BLU BLU=
METAR LKPD 100530Z VRB01KT CAVOK 20/17 Q1017 NOSIG RMK BLU BLU=
METAR LKPJ 100530Z AUTO VRB01KT CAVOK 20/17 Q1017=
SPECI LKPR 100545Z 00000KT CAVOK 23/17 Q1018 RMK REG QNH 1014=
METAR LKTB 100530Z VRB01KT CAVOK 20/17 Q1017 NOSIG RMK REG QNH 1014=
METAR LKVO 100600Z 11004KT CAVOK 22/19 Q1017=
METAR LOWI 100550Z VRB02KT 9999 FEW070 18/15 Q1018 NOSIG=
METAR LOWL 100550Z VRB02KT CAVOK 19/17 Q1017 NOSIG=
METAR LOWS 100550Z 15004KT CAVOK 20/15 Q1017 NOSIG=
METAR LOWW 100550Z VRB01KT CAVOK 22/17 Q1017 NOSIG=
METAR LZIB 100530Z VRB02KT CAVOK 23/17 Q1016 NOSIG=
METAR LZKZ 100530Z 36009KT CAVOK 23/15 Q1017 NOSIG=
METAR LZMC 100500Z 28002KT CAVOK 17/16 Q1017=
METAR LZPP 100530Z 02008KT CAVOK 20/17 Q1016=
METAR LZSL 100530Z VRB01KT CAVOK 18/17 Q1018=
METAR LZTT 100530Z 29002KT CAVOK 18/14 Q1020 NOSIG=
SPECI LZZI 100550Z 08005KT CAVOK 20/16 Q1018=